createdAt,value
2023-04-16T00:01:16.781Z,97.14
2023-04-16T00:03:43.437Z,96.96
2023-04-16T00:06:12.471Z,97.72
2023-04-16T00:08:38.894Z,97.71
2023-04-16T00:11:05.739Z,97.07
2023-04-16T00:13:32.621Z,96.97
2023-04-16T00:15:59.151Z,96.87
2023-04-16T00:18:26.163Z,96.81
2023-04-16T00:20:53.458Z,96.49
2023-04-16T00:23:20.059Z,96.81
2023-04-16T00:25:46.685Z,96.80
2023-04-16T00:28:13.155Z,96.97
2023-04-16T00:30:40.007Z,97.12
2023-04-16T00:33:06.686Z,96.57
2023-04-16T00:35:33.098Z,96.48
2023-04-16T00:37:59.770Z,96.62
2023-04-16T00:40:29.903Z,96.97
2023-04-16T00:42:56.369Z,97.35
2023-04-16T00:45:22.833Z,97.53
2023-04-16T00:47:49.713Z,97.32
2023-04-16T00:50:17.555Z,96.75
2023-04-16T00:52:46.250Z,97.60
2023-04-16T00:55:13.425Z,97.64
2023-04-16T00:57:40.030Z,97.20
2023-04-16T01:00:07.103Z,97.11
2023-04-16T01:02:34.230Z,96.86
2023-04-16T01:05:02.273Z,96.91
2023-04-16T01:07:29.101Z,96.98
2023-04-16T01:09:56.266Z,97.02
2023-04-16T01:12:23.305Z,96.48
2023-04-16T01:14:50.053Z,97.07
2023-04-16T01:17:16.445Z,97.34
2023-04-16T01:19:43.133Z,97.67
2023-04-16T01:22:09.588Z,96.86
2023-04-16T01:24:36.494Z,96.98
2023-04-16T01:27:02.976Z,97.52
2023-04-16T01:29:29.395Z,96.71
2023-04-16T01:31:55.770Z,97.12
2023-04-16T01:34:22.302Z,96.56
2023-04-16T01:36:48.816Z,97.07
2023-04-16T01:39:16.322Z,97.20
2023-04-16T01:41:43.232Z,96.75
2023-04-16T01:44:09.671Z,96.89
2023-04-16T01:46:37.753Z,96.77
2023-04-16T01:49:04.923Z,96.95
2023-04-16T01:51:32.773Z,97.12
2023-04-16T01:53:59.316Z,97.01
2023-04-16T01:56:26.136Z,97.28
2023-04-16T01:58:53.352Z,96.91
2023-04-16T02:01:20.215Z,97.50
2023-04-16T02:03:47.523Z,97.17
2023-04-16T02:06:14.693Z,96.81
2023-04-16T02:08:41.689Z,96.88
2023-04-16T02:11:08.198Z,96.39
2023-04-16T02:13:34.899Z,97.04
2023-04-16T02:16:02.460Z,97.16
2023-04-16T02:18:28.927Z,96.92
2023-04-16T02:20:58.551Z,96.99
2023-04-16T02:23:25.289Z,96.63
2023-04-16T02:25:53.153Z,96.71
2023-04-16T02:28:19.584Z,96.58
2023-04-16T02:30:46.038Z,96.91
2023-04-16T02:33:12.820Z,97.21
2023-04-16T02:35:40.248Z,96.79
2023-04-16T02:38:08.178Z,97.32
2023-04-16T02:40:34.861Z,97.20
2023-04-16T02:43:01.255Z,96.92
2023-04-16T02:45:27.855Z,97.42
2023-04-16T02:47:54.361Z,97.06
2023-04-16T02:50:21.038Z,97.43
2023-04-16T02:52:48.627Z,97.38
2023-04-16T02:55:15.245Z,96.76
2023-04-16T02:57:42.519Z,97.48
2023-04-16T03:00:09.996Z,97.12
2023-04-16T03:02:36.480Z,96.85
2023-04-16T03:05:03.612Z,96.39
2023-04-16T03:07:30.118Z,96.69
2023-04-16T03:09:56.833Z,96.71
2023-04-16T03:12:23.297Z,97.19
2023-04-16T03:14:52.504Z,96.56
2023-04-16T03:17:19.066Z,97.07
2023-04-16T03:19:46.068Z,96.81
2023-04-16T03:22:12.521Z,97.22
2023-04-16T03:24:38.974Z,97.19
2023-04-16T03:27:05.716Z,96.87
2023-04-16T03:29:32.239Z,96.24
2023-04-16T03:31:58.770Z,96.33
2023-04-16T03:34:25.341Z,97.14
2023-04-16T03:36:51.768Z,97.08
2023-04-16T03:39:18.317Z,96.84
2023-04-16T03:41:44.836Z,96.89
2023-04-16T03:44:11.332Z,96.92
2023-04-16T03:46:37.768Z,96.69
2023-04-16T03:49:04.191Z,96.51
2023-04-16T03:51:30.833Z,97.16
2023-04-16T03:53:57.221Z,96.61
2023-04-16T03:56:23.824Z,97.06
2023-04-16T03:58:50.222Z,96.67
2023-04-16T04:01:16.811Z,96.47
2023-04-16T04:03:43.300Z,96.52
2023-04-16T04:06:09.986Z,97.26
2023-04-16T04:08:36.422Z,96.69
2023-04-16T04:11:02.854Z,96.85
2023-04-16T04:13:29.536Z,96.52
2023-04-16T04:15:56.131Z,96.18
2023-04-16T04:18:22.667Z,97.94
2023-04-16T04:20:49.183Z,96.69
2023-04-16T04:23:15.700Z,97.04
2023-04-16T04:25:42.110Z,96.85
2023-04-16T04:28:08.512Z,96.85
2023-04-16T04:30:35.951Z,96.47
2023-04-16T04:33:02.667Z,96.66
2023-04-16T04:35:29.273Z,97.24
2023-04-16T04:37:55.741Z,97.01
2023-04-16T04:40:22.210Z,96.62
2023-04-16T04:42:48.631Z,97.18
2023-04-16T04:45:15.293Z,96.69
2023-04-16T04:47:41.951Z,97.73
2023-04-16T04:50:08.853Z,96.86
2023-04-16T04:52:35.805Z,97.27
2023-04-16T04:55:02.159Z,97.60
2023-04-16T04:57:28.563Z,97.19
2023-04-16T04:59:54.933Z,96.80
2023-04-16T05:02:21.550Z,96.69
2023-04-16T05:04:48.021Z,97.34
2023-04-16T05:07:14.470Z,96.93
2023-04-16T05:09:41.026Z,96.72
2023-04-16T05:12:07.575Z,97.17
2023-04-16T05:14:34.189Z,97.04
2023-04-16T05:17:00.992Z,96.28
2023-04-16T05:19:27.423Z,97.14
2023-04-16T05:21:54.359Z,96.45
2023-04-16T05:24:21.066Z,95.39
2023-04-16T05:26:47.486Z,96.85
2023-04-16T05:29:13.940Z,95.74
2023-04-16T05:31:40.914Z,95.65
2023-04-16T05:34:07.359Z,95.54
2023-04-16T05:36:33.842Z,95.59
2023-04-16T05:39:00.213Z,95.39
2023-04-16T05:41:26.619Z,95.32
2023-04-16T05:43:53.042Z,95.55
2023-04-16T05:46:19.689Z,94.60
2023-04-16T05:48:46.405Z,94.02
2023-04-16T05:51:13.019Z,94.45
2023-04-16T05:53:39.442Z,94.72
2023-04-16T05:56:06.260Z,94.89
2023-04-16T05:58:32.746Z,94.92
2023-04-16T06:00:59.725Z,94.58
2023-04-16T06:03:26.133Z,93.68
2023-04-16T06:05:53.128Z,93.88
2023-04-16T06:08:19.788Z,93.77
2023-04-16T06:10:47.422Z,94.46
2023-04-16T06:13:14.192Z,92.51
2023-04-16T06:15:40.658Z,93.83
2023-04-16T06:18:07.142Z,93.70
2023-04-16T06:20:33.585Z,92.85
2023-04-16T06:22:59.981Z,91.34
2023-04-16T06:25:26.491Z,90.91
2023-04-16T06:27:52.834Z,92.06
2023-04-16T06:30:20.004Z,91.42
2023-04-16T06:32:46.639Z,92.41
2023-04-16T06:35:13.248Z,91.92
2023-04-16T06:37:39.973Z,91.08
2023-04-16T06:40:06.960Z,89.74
2023-04-16T06:42:33.530Z,91.51
2023-04-16T06:45:00.042Z,91.23
2023-04-16T06:47:27.082Z,90.62
2023-04-16T06:49:53.618Z,89.50
2023-04-16T06:52:20.452Z,90.07
2023-04-16T06:54:47.940Z,90.23
2023-04-16T06:57:14.476Z,90.49
2023-04-16T06:59:40.901Z,90.45
2023-04-16T07:02:10.083Z,89.41
2023-04-16T07:04:36.643Z,90.26
2023-04-16T07:07:03.116Z,90.48
2023-04-16T07:09:29.494Z,90.05
2023-04-16T07:11:55.997Z,89.82
2023-04-16T07:14:22.529Z,89.74
2023-04-16T07:16:49.073Z,88.98
2023-04-16T07:19:15.807Z,88.70
2023-04-16T07:21:43.600Z,88.07
2023-04-16T07:24:11.584Z,88.61
2023-04-16T07:26:38.187Z,87.73
2023-04-16T07:29:04.630Z,87.48
2023-04-16T07:31:31.298Z,88.02
2023-04-16T07:33:58.322Z,88.84
2023-04-16T07:36:24.969Z,86.25
2023-04-16T07:38:51.323Z,86.45
2023-04-16T07:41:17.739Z,84.83
2023-04-16T07:43:44.428Z,85.28
2023-04-16T07:46:11.012Z,84.94
2023-04-16T07:48:37.479Z,84.43
2023-04-16T07:51:03.907Z,85.23
2023-04-16T07:53:30.447Z,84.85
2023-04-16T07:55:56.998Z,83.68
2023-04-16T07:58:23.527Z,84.81
2023-04-16T08:00:51.044Z,82.86
2023-04-16T08:03:18.386Z,81.67
2023-04-16T08:05:45.206Z,81.39
2023-04-16T08:08:11.640Z,81.62
2023-04-16T08:10:39.101Z,81.25
2023-04-16T08:13:05.880Z,81.16
2023-04-16T08:15:32.446Z,80.81
2023-04-16T08:18:00.345Z,79.37
2023-04-16T08:20:27.016Z,80.23
2023-04-16T08:22:54.004Z,78.87
2023-04-16T08:25:20.771Z,81.76
2023-04-16T08:27:47.255Z,82.09
2023-04-16T08:30:15.341Z,82.47
2023-04-16T08:32:43.463Z,83.95
2023-04-16T08:35:09.957Z,83.93
2023-04-16T08:37:36.408Z,83.86
2023-04-16T08:40:03.464Z,82.67
2023-04-16T08:42:40.847Z,84.00
2023-04-16T08:45:17.827Z,84.19
2023-04-16T08:47:49.215Z,85.61
2023-04-16T08:50:17.595Z,85.24
2023-04-16T08:52:52.718Z,84.57
2023-04-16T08:55:25.647Z,85.02
2023-04-16T08:57:58.887Z,82.64
2023-04-16T09:00:25.714Z,83.17
2023-04-16T09:02:53.834Z,82.82
2023-04-16T09:05:22.696Z,83.16
2023-04-16T09:07:49.310Z,83.40
2023-04-16T09:10:16.424Z,83.77
2023-04-16T09:12:43.537Z,83.29
2023-04-16T09:15:11.589Z,82.43
2023-04-16T09:17:38.940Z,82.20
2023-04-16T09:20:08.657Z,81.30
2023-04-16T09:22:36.180Z,83.46
2023-04-16T09:25:02.825Z,84.44
2023-04-16T09:27:30.239Z,84.40
2023-04-16T09:29:56.687Z,82.01
2023-04-16T09:32:27.888Z,83.12
2023-04-16T09:35:02.078Z,81.45
2023-04-16T09:37:29.948Z,82.18
2023-04-16T09:39:57.612Z,83.45
2023-04-16T09:42:29.365Z,82.00
2023-04-16T09:44:59.422Z,81.74
2023-04-16T09:47:42.397Z,81.85
2023-04-16T09:50:12.488Z,82.79
2023-04-16T09:52:39.561Z,80.66
2023-04-16T09:55:06.444Z,80.80
2023-04-16T09:57:32.871Z,82.05
2023-04-16T10:00:04.758Z,80.62
2023-04-16T10:02:33.030Z,79.07
2023-04-16T10:05:02.306Z,77.71
2023-04-16T10:07:30.187Z,76.59
2023-04-16T10:09:56.944Z,76.27
2023-04-16T10:12:23.463Z,74.48
2023-04-16T10:14:50.401Z,70.71
2023-04-16T10:17:17.423Z,72.94
2023-04-16T10:19:45.563Z,70.88
2023-04-16T10:22:12.006Z,70.90
2023-04-16T10:24:39.222Z,73.31
2023-04-16T10:27:05.826Z,70.45
2023-04-16T10:29:33.321Z,69.40
2023-04-16T10:32:01.127Z,69.56
2023-04-16T10:34:28.986Z,66.83
2023-04-16T10:36:55.982Z,65.95
2023-04-16T10:39:24.359Z,65.37
2023-04-16T10:42:06.168Z,64.71
2023-04-16T10:44:33.194Z,67.81
2023-04-16T10:46:59.650Z,66.74
2023-04-16T10:49:27.309Z,66.85
2023-04-16T10:51:58.697Z,69.20
2023-04-16T10:54:26.681Z,65.54
2023-04-16T10:56:56.053Z,68.11
2023-04-16T10:59:23.693Z,66.65
2023-04-16T11:01:55.683Z,68.65
2023-04-16T11:04:25.336Z,68.10
2023-04-16T11:07:16.476Z,69.41
2023-04-16T11:09:56.126Z,71.66
2023-04-16T11:12:37.330Z,71.91
2023-04-16T11:15:09.403Z,72.13
2023-04-16T11:17:47.099Z,71.79
2023-04-16T11:20:20.399Z,72.51
2023-04-16T11:22:55.731Z,71.51
2023-04-16T11:25:30.387Z,74.46
2023-04-16T11:28:01.075Z,74.29
2023-04-16T11:30:35.990Z,71.58
2023-04-16T11:33:09.734Z,73.15
2023-04-16T11:35:36.237Z,72.85
2023-04-16T11:38:02.689Z,72.22
2023-04-16T11:40:31.944Z,70.90
2023-04-16T11:43:13.540Z,72.50
2023-04-16T11:45:53.417Z,71.35
2023-04-16T11:48:19.812Z,73.60
2023-04-16T11:50:55.711Z,72.67
2023-04-16T11:53:22.182Z,72.21
2023-04-16T11:55:48.803Z,71.92
2023-04-16T11:58:19.145Z,71.14
2023-04-16T12:00:46.537Z,70.82
2023-04-16T12:03:13.174Z,70.52
2023-04-16T12:05:40.672Z,70.84
2023-04-16T12:08:10.540Z,73.09
2023-04-16T12:10:52.232Z,71.80
2023-04-16T12:13:19.656Z,71.78
2023-04-16T12:15:50.552Z,72.05
2023-04-16T12:18:19.217Z,70.68
2023-04-16T12:20:46.531Z,71.38
2023-04-16T12:23:32.896Z,71.91
2023-04-16T12:26:10.282Z,70.90
2023-04-16T12:28:38.523Z,72.06
2023-04-16T12:31:06.319Z,72.57
2023-04-16T12:33:32.982Z,72.17
2023-04-16T12:35:59.689Z,72.02
2023-04-16T12:38:26.774Z,69.73
2023-04-16T12:40:56.609Z,72.01
2023-04-16T12:43:23.372Z,71.17
2023-04-16T12:45:49.826Z,69.42
2023-04-16T12:48:16.329Z,71.17
2023-04-16T12:50:44.195Z,71.84
2023-04-16T12:53:11.453Z,70.32
2023-04-16T12:55:37.923Z,70.70
2023-04-16T12:58:04.410Z,69.64
2023-04-16T13:00:30.750Z,68.59
2023-04-16T13:02:57.349Z,67.84
2023-04-16T13:05:23.865Z,68.48
2023-04-16T13:07:50.575Z,70.67
2023-04-16T13:10:17.349Z,69.12
2023-04-16T13:12:43.718Z,69.36
2023-04-16T13:15:10.720Z,68.17
2023-04-16T13:17:37.496Z,65.96
2023-04-16T13:20:04.410Z,64.16
2023-04-16T13:22:30.885Z,64.26
2023-04-16T13:24:57.486Z,57.77
2023-04-16T13:27:23.993Z,59.03
2023-04-16T13:29:50.475Z,61.51
2023-04-16T13:32:18.755Z,62.55
2023-04-16T13:34:45.541Z,56.85
2023-04-16T13:37:12.959Z,58.00
2023-04-16T13:39:39.505Z,59.72
2023-04-16T13:42:06.152Z,56.78
2023-04-16T13:44:32.796Z,56.70
2023-04-16T13:46:59.343Z,56.49
2023-04-16T13:49:25.981Z,58.86
2023-04-16T13:51:52.527Z,54.92
2023-04-16T13:54:19.084Z,55.25
2023-04-16T13:56:45.820Z,57.23
2023-04-16T13:59:12.423Z,56.02
2023-04-16T14:01:38.982Z,56.50
2023-04-16T14:04:07.141Z,58.63
2023-04-16T14:06:36.689Z,58.23
2023-04-16T14:09:04.364Z,60.56
2023-04-16T14:11:31.649Z,61.01
2023-04-16T14:13:58.359Z,59.39
2023-04-16T14:16:24.910Z,59.60
2023-04-16T14:18:52.063Z,59.10
2023-04-16T14:21:18.729Z,59.06
2023-04-16T14:23:45.250Z,59.52
2023-04-16T14:26:11.708Z,62.61
2023-04-16T14:28:39.262Z,65.85
2023-04-16T14:31:05.688Z,67.81
2023-04-16T14:33:32.341Z,70.39
2023-04-16T14:36:01.910Z,70.44
2023-04-16T14:38:29.366Z,70.72
2023-04-16T14:40:55.906Z,73.12
2023-04-16T14:43:22.366Z,73.79
2023-04-16T14:45:48.838Z,71.88
2023-04-16T14:48:15.268Z,74.98
2023-04-16T14:50:43.957Z,75.48
2023-04-16T14:53:13.727Z,74.70
2023-04-16T14:55:40.125Z,76.83
2023-04-16T14:58:06.564Z,77.65
2023-04-16T15:00:35.599Z,79.19
2023-04-16T15:03:02.213Z,80.35
2023-04-16T15:05:29.953Z,81.37
2023-04-16T15:07:56.613Z,81.75
2023-04-16T15:10:23.110Z,83.06
2023-04-16T15:12:49.672Z,83.96
2023-04-16T15:15:16.260Z,83.47
2023-04-16T15:17:43.524Z,83.49
2023-04-16T15:20:10.545Z,82.43
2023-04-16T15:22:37.293Z,84.53
2023-04-16T15:25:05.328Z,83.08
2023-04-16T15:27:31.803Z,82.46
2023-04-16T15:29:58.212Z,81.93
2023-04-16T15:32:24.698Z,81.46
2023-04-16T15:34:51.577Z,81.63
2023-04-16T15:37:17.960Z,81.75
2023-04-16T15:39:44.568Z,81.71
2023-04-16T15:42:11.640Z,82.75
2023-04-16T15:44:38.188Z,82.64
2023-04-16T15:47:06.268Z,82.47
2023-04-16T15:49:32.699Z,82.51
2023-04-16T15:51:59.362Z,81.06
2023-04-16T15:54:26.034Z,81.14
2023-04-16T15:56:52.454Z,79.15
2023-04-16T15:59:18.859Z,79.05
2023-04-16T16:01:45.254Z,80.53
2023-04-16T16:04:11.798Z,77.66
2023-04-16T16:06:38.255Z,77.39
2023-04-16T16:09:04.954Z,77.45
2023-04-16T16:11:32.396Z,77.55
2023-04-16T16:14:01.078Z,76.27
2023-04-16T16:16:28.415Z,75.96
2023-04-16T16:18:55.229Z,77.78
2023-04-16T16:21:21.991Z,78.17
2023-04-16T16:23:48.577Z,76.45
2023-04-16T16:26:14.995Z,74.92
2023-04-16T16:28:43.806Z,76.52
2023-04-16T16:31:12.131Z,77.77
2023-04-16T16:33:40.428Z,76.40
2023-04-16T16:36:10.857Z,78.40
2023-04-16T16:38:38.168Z,78.39
2023-04-16T16:41:04.602Z,79.42
2023-04-16T16:43:31.394Z,77.84
2023-04-16T16:45:57.893Z,77.07
2023-04-16T16:48:24.304Z,78.17
2023-04-16T16:50:50.808Z,79.75
2023-04-16T16:53:17.290Z,82.01
2023-04-16T16:55:43.727Z,81.65
2023-04-16T16:58:11.043Z,80.78
2023-04-16T17:00:37.901Z,80.78
2023-04-16T17:03:04.673Z,81.25
2023-04-16T17:05:31.220Z,80.38
2023-04-16T17:07:57.704Z,80.93
2023-04-16T17:10:25.120Z,81.30
2023-04-16T17:12:51.835Z,81.37
2023-04-16T17:15:21.261Z,79.79
2023-04-16T17:17:48.582Z,81.98
2023-04-16T17:20:15.760Z,82.45
2023-04-16T17:22:42.443Z,83.03
2023-04-16T17:25:09.384Z,83.17
2023-04-16T17:27:35.924Z,82.55
2023-04-16T17:30:03.536Z,82.39
2023-04-16T17:32:32.327Z,82.46
2023-04-16T17:35:01.501Z,83.31
2023-04-16T17:37:28.646Z,82.70
2023-04-16T17:39:55.389Z,82.93
2023-04-16T17:42:21.883Z,84.34
2023-04-16T17:44:48.415Z,85.07
2023-04-16T17:47:15.025Z,85.13
2023-04-16T17:49:41.507Z,85.56
2023-04-16T17:52:07.978Z,85.78
2023-04-16T17:54:35.833Z,85.77
2023-04-16T17:57:02.411Z,85.92
2023-04-16T17:59:29.203Z,86.21
2023-04-16T18:01:56.561Z,86.23
2023-04-16T18:04:23.623Z,85.54
2023-04-16T18:06:50.515Z,85.32
2023-04-16T18:09:17.326Z,85.21
2023-04-16T18:11:43.812Z,85.52
2023-04-16T18:14:12.001Z,86.45
2023-04-16T18:16:38.928Z,86.10
2023-04-16T18:19:05.546Z,86.77
2023-04-16T18:21:32.146Z,86.69
2023-04-16T18:24:00.772Z,85.98
2023-04-16T18:26:29.680Z,86.42
2023-04-16T18:28:56.658Z,86.60
2023-04-16T18:31:23.276Z,86.03
2023-04-16T18:33:57.538Z,86.45
2023-04-16T18:36:26.424Z,85.66
2023-04-16T18:39:01.508Z,85.67
2023-04-16T18:41:28.654Z,85.73
2023-04-16T18:43:55.349Z,85.59
2023-04-16T18:46:21.866Z,85.72
2023-04-16T18:48:48.431Z,85.49
2023-04-16T18:51:16.299Z,85.40
2023-04-16T18:53:44.469Z,85.99
2023-04-16T18:56:11.683Z,85.76
2023-04-16T18:58:38.358Z,85.92
2023-04-16T19:01:07.841Z,85.00
2023-04-16T19:03:34.830Z,85.36
2023-04-16T19:06:02.101Z,85.68
2023-04-16T19:08:28.626Z,86.40
2023-04-16T19:10:55.266Z,87.01
2023-04-16T19:13:21.797Z,86.63
2023-04-16T19:15:48.366Z,86.93
2023-04-16T19:18:14.910Z,86.76
2023-04-16T19:20:41.550Z,87.17
2023-04-16T19:23:09.251Z,87.17
2023-04-16T19:25:39.243Z,86.73
2023-04-16T19:28:05.881Z,86.67
2023-04-16T19:30:32.414Z,87.19
2023-04-16T19:32:59.204Z,87.42
2023-04-16T19:35:25.922Z,88.01
2023-04-16T19:37:52.758Z,87.81
2023-04-16T19:40:19.303Z,88.46
2023-04-16T19:42:45.886Z,88.78
2023-04-16T19:45:13.416Z,87.97
2023-04-16T19:47:40.288Z,87.57
2023-04-16T19:50:07.500Z,87.47
2023-04-16T19:52:39.014Z,88.09
2023-04-16T19:55:06.659Z,88.16
2023-04-16T19:57:33.304Z,88.44
2023-04-16T20:00:00.161Z,89.05
2023-04-16T20:02:27.109Z,89.48
2023-04-16T20:04:53.925Z,89.25
2023-04-16T20:07:20.533Z,90.21
2023-04-16T20:09:47.237Z,90.48
2023-04-16T20:12:14.307Z,90.09
2023-04-16T20:14:41.767Z,90.71
2023-04-16T20:17:10.240Z,90.95
2023-04-16T20:19:40.724Z,90.85
2023-04-16T20:22:07.405Z,91.11
2023-04-16T20:24:34.348Z,91.33
2023-04-16T20:27:01.652Z,91.95
2023-04-16T20:29:28.045Z,91.24
2023-04-16T20:31:54.567Z,92.60
2023-04-16T20:34:20.963Z,92.23
2023-04-16T20:36:47.824Z,92.52
2023-04-16T20:39:14.718Z,92.20
2023-04-16T20:41:44.066Z,92.93
2023-04-16T20:44:17.947Z,92.71
2023-04-16T20:46:49.819Z,93.67
2023-04-16T20:49:18.400Z,94.01
2023-04-16T20:51:45.848Z,93.70
2023-04-16T20:54:12.899Z,93.76
2023-04-16T20:56:39.438Z,93.45
2023-04-16T20:59:06.194Z,93.48
2023-04-16T21:01:33.105Z,93.11
2023-04-16T21:04:00.248Z,93.74
2023-04-16T21:06:27.460Z,93.71
2023-04-16T21:08:53.954Z,93.61
2023-04-16T21:11:20.748Z,92.73
2023-04-16T21:13:47.308Z,92.63
2023-04-16T21:16:13.881Z,92.93
2023-04-16T21:18:40.412Z,92.38
2023-04-16T21:21:06.944Z,93.06
2023-04-16T21:23:33.449Z,93.20
2023-04-16T21:26:00.069Z,92.86
2023-04-16T21:28:26.679Z,92.29
2023-04-16T21:30:53.194Z,92.49
2023-04-16T21:33:19.613Z,93.09
2023-04-16T21:35:51.211Z,93.22
2023-04-16T21:38:17.929Z,92.80
2023-04-16T21:40:54.026Z,92.89
2023-04-16T21:43:20.822Z,92.85
2023-04-16T21:45:47.458Z,92.37
2023-04-16T21:48:14.204Z,91.79
2023-04-16T21:50:40.836Z,91.62
2023-04-16T21:53:07.328Z,91.85
2023-04-16T21:55:34.745Z,92.05
2023-04-16T21:58:04.319Z,91.83
2023-04-16T22:00:30.843Z,92.21
2023-04-16T22:03:00.098Z,91.39
2023-04-16T22:05:26.954Z,91.38
2023-04-16T22:07:53.354Z,91.74
2023-04-16T22:10:20.055Z,92.65
2023-04-16T22:12:46.709Z,92.81
2023-04-16T22:15:14.036Z,93.42
2023-04-16T22:17:40.900Z,93.34
2023-04-16T22:20:14.436Z,93.28
2023-04-16T22:22:42.062Z,93.94
2023-04-16T22:25:09.648Z,93.18
2023-04-16T22:27:36.503Z,92.71
2023-04-16T22:30:03.992Z,92.66
2023-04-16T22:32:30.871Z,93.30
2023-04-16T22:34:57.650Z,93.47
2023-04-16T22:37:24.599Z,93.05
2023-04-16T22:39:51.224Z,92.65
2023-04-16T22:42:17.751Z,92.86
2023-04-16T22:44:44.342Z,93.48
2023-04-16T22:47:10.863Z,92.74
2023-04-16T22:49:37.471Z,93.59
2023-04-16T22:52:03.982Z,93.39
2023-04-16T22:54:31.352Z,93.88
2023-04-16T22:56:58.179Z,94.12
2023-04-16T22:59:25.177Z,94.67
2023-04-16T23:01:52.779Z,94.84
2023-04-16T23:04:19.690Z,95.66
2023-04-16T23:06:46.321Z,95.21
2023-04-16T23:09:13.155Z,95.45
2023-04-16T23:11:39.882Z,95.41
2023-04-16T23:14:06.383Z,95.80
2023-04-16T23:16:32.869Z,95.99
2023-04-16T23:18:59.359Z,95.80
2023-04-16T23:21:26.263Z,95.49
2023-04-16T23:23:52.806Z,96.25
2023-04-16T23:26:19.263Z,95.40
2023-04-16T23:28:45.816Z,95.62
2023-04-16T23:31:12.358Z,96.02
2023-04-16T23:33:39.914Z,95.72
2023-04-16T23:36:06.827Z,96.08
2023-04-16T23:38:33.293Z,96.22
2023-04-16T23:40:59.712Z,95.92
2023-04-16T23:43:26.127Z,95.77
2023-04-16T23:45:52.728Z,96.26
2023-04-16T23:48:19.354Z,96.49
2023-04-16T23:50:45.904Z,95.99
2023-04-16T23:53:12.455Z,96.29
2023-04-16T23:55:39.204Z,96.33
2023-04-16T23:58:05.763Z,96.51
